Time;durP1;ratioP1;P1;durP2;ratioP2;P2;SDS_P1;SDS_P2;PMS_P1;PMS_P2;Temp;Humidity;BMP_temperature;BMP_pressure;BME280_temperature;BME280_humidity;BME280_pressure;Samples;Min_cycle;Max_cycle;Signal;HPM_P1;HPM_P2
2021/09/25 00:02:28;;;;;;;7.03;6.33;;;;;;;;;;5132306;27;20775;-92
2021/09/25 00:04:55;;;;;;;7.40;6.70;;;;;;;;;;5092942;28;20205;-90
2021/09/25 00:07:21;;;;;;;9.50;6.73;;;;;;;;;;5093514;28;20217;-91
2021/09/25 00:09:48;;;;;;;7.50;6.50;;;;;;;;;;5111642;28;20240;-91
2021/09/25 00:12:16;;;;;;;7.87;6.80;;;;;;;;;;5111228;28;20209;-92
2021/09/25 00:14:43;;;;;;;7.33;6.43;;;;;;;;;;5093640;28;20242;-93
2021/09/25 00:17:10;;;;;;;7.30;6.60;;;;;;;;;;5093557;28;20197;-93
2021/09/25 00:19:39;;;;;;;7.10;6.50;;;;;;;;;;5111920;28;20523;-92
2021/09/25 00:22:05;;;;;;;8.80;7.20;;;;;;;;;;5093904;28;20542;-92
2021/09/25 00:24:32;;;;;;;7.90;7.10;;;;;;;;;;5111417;28;20182;-91
2021/09/25 00:26:59;;;;;;;8.07;6.70;;;;;;;;;;5111490;28;20184;-92
2021/09/25 00:29:26;;;;;;;9.40;6.93;;;;;;;;;;5111263;28;20213;-92
2021/09/25 00:31:53;;;;;;;7.33;6.63;;;;;;;;;;5093081;28;20208;-91
2021/09/25 00:34:20;;;;;;;8.53;7.20;;;;;;;;;;5109586;28;20212;-90
2021/09/25 00:36:48;;;;;;;10.07;7.10;;;;;;;;;;5110794;28;20181;-91
2021/09/25 00:39:15;;;;;;;7.03;6.47;;;;;;;;;;5092884;28;20209;-92
2021/09/25 00:41:42;;;;;;;6.80;6.20;;;;;;;;;;5110583;28;20221;-90
2021/09/25 00:44:09;;;;;;;7.57;6.80;;;;;;;;;;5092939;28;20212;-92
2021/09/25 00:46:36;;;;;;;7.23;6.40;;;;;;;;;;5092389;28;20201;-91
2021/09/25 00:49:03;;;;;;;8.17;6.60;;;;;;;;;;5110851;28;20246;-91
2021/09/25 00:51:30;;;;;;;7.43;6.73;;;;;;;;;;5093569;28;20217;-89
2021/09/25 00:53:57;;;;;;;7.27;6.67;;;;;;;;;;5071879;28;20248;-91
2021/09/25 00:56:24;;;;;;;7.90;6.50;;;;;;;;;;5090258;28;20213;-92
2021/09/25 00:58:51;;;;;;;8.13;7.03;;;;;;;;;;5090048;28;20178;-92
2021/09/25 01:01:18;;;;;;;7.63;6.63;;;;;;;;;;5089631;28;20269;-91
2021/09/25 01:03:44;;;;;;;8.27;6.50;;;;;;;;;;5072237;28;20202;-92
2021/09/25 01:06:11;;;;;;;8.37;7.00;;;;;;;;;;5089866;28;20214;-91
2021/09/25 01:08:38;;;;;;;9.00;7.10;;;;;;;;;;5071301;28;20213;-90
2021/09/25 01:11:06;;;;;;;8.10;7.40;;;;;;;;;;5071863;28;20198;-90
2021/09/25 01:13:33;;;;;;;9.50;7.40;;;;;;;;;;5061298;28;20206;-90
2021/09/25 01:15:59;;;;;;;7.37;6.73;;;;;;;;;;5060099;28;20194;-93
2021/09/25 01:18:26;;;;;;;7.93;7.23;;;;;;;;;;5075643;28;20175;-90
2021/09/25 01:20:53;;;;;;;7.87;7.03;;;;;;;;;;5059211;28;20233;-91
2021/09/25 01:23:21;;;;;;;7.90;7.10;;;;;;;;;;5060140;28;20604;-92
2021/09/25 01:25:48;;;;;;;8.07;7.27;;;;;;;;;;5060246;28;20199;-91
2021/09/25 01:28:15;;;;;;;7.17;6.47;;;;;;;;;;5079297;28;20175;-93
2021/09/25 01:30:42;;;;;;;8.67;7.00;;;;;;;;;;5062076;28;20208;-91
2021/09/25 01:33:09;;;;;;;7.07;6.30;;;;;;;;;;5059879;28;20555;-91
2021/09/25 01:35:36;;;;;;;6.47;5.97;;;;;;;;;;5075937;28;20206;-92
2021/09/25 01:38:03;;;;;;;7.50;6.80;;;;;;;;;;5059525;28;20197;-93
2021/09/25 01:40:31;;;;;;;8.00;6.00;;;;;;;;;;5059024;28;20604;-91
2021/09/25 01:42:58;;;;;;;8.40;6.83;;;;;;;;;;5075852;28;20245;-90
2021/09/25 01:45:24;;;;;;;6.33;5.83;;;;;;;;;;5058016;28;20191;-91
2021/09/25 01:47:51;;;;;;;6.50;5.90;;;;;;;;;;5058023;28;20190;-90
2021/09/25 01:50:18;;;;;;;6.57;6.07;;;;;;;;;;5057528;28;20253;-90
2021/09/25 01:52:44;;;;;;;6.80;6.20;;;;;;;;;;5075521;28;20210;-91
2021/09/25 01:55:12;;;;;;;9.03;6.93;;;;;;;;;;5075579;28;20216;-90
2021/09/25 01:57:40;;;;;;;7.93;7.23;;;;;;;;;;5075558;28;20179;-90
2021/09/25 02:00:07;;;;;;;7.47;6.77;;;;;;;;;;5074690;28;20206;-90
2021/09/25 02:02:34;;;;;;;7.17;6.47;;;;;;;;;;5056530;28;20249;-88
2021/09/25 02:05:01;;;;;;;8.97;6.43;;;;;;;;;;5074921;28;20186;-89
2021/09/25 02:07:27;;;;;;;7.40;6.20;;;;;;;;;;5075188;28;20229;-89
2021/09/25 02:09:54;;;;;;;6.80;6.20;;;;;;;;;;5074909;28;20217;-90
2021/09/25 02:12:20;;;;;;;6.90;6.30;;;;;;;;;;5074240;28;20210;-90
2021/09/25 02:14:49;;;;;;;12.37;7.03;;;;;;;;;;5074818;28;20179;-90
2021/09/25 02:17:16;;;;;;;7.47;6.63;;;;;;;;;;5075161;28;20183;-89
2021/09/25 02:19:43;;;;;;;7.70;6.80;;;;;;;;;;5074851;28;20183;-89
2021/09/25 02:22:09;;;;;;;7.37;6.77;;;;;;;;;;5074610;28;20245;-88
2021/09/25 02:24:36;;;;;;;7.97;7.17;;;;;;;;;;5054889;28;20207;-90
2021/09/25 02:27:04;;;;;;;7.53;6.77;;;;;;;;;;5074549;28;20199;-88
2021/09/25 02:29:31;;;;;;;6.90;6.30;;;;;;;;;;5056803;28;20244;-89
2021/09/25 02:31:59;;;;;;;9.30;6.67;;;;;;;;;;5056790;28;20240;-90
2021/09/25 02:34:26;;;;;;;7.60;6.90;;;;;;;;;;5056504;28;20210;-89
2021/09/25 02:36:52;;;;;;;8.27;7.40;;;;;;;;;;5056618;28;20203;-89
2021/09/25 02:39:19;;;;;;;8.90;7.63;;;;;;;;;;5055967;28;20234;-90
2021/09/25 02:41:46;;;;;;;8.60;7.80;;;;;;;;;;5056208;28;20214;-89
2021/09/25 02:44:12;;;;;;;7.90;7.30;;;;;;;;;;5073916;28;20221;-90
2021/09/25 02:46:39;;;;;;;8.20;7.43;;;;;;;;;;5073709;28;20665;-89
2021/09/25 02:49:07;;;;;;;9.03;7.57;;;;;;;;;;5055993;28;20194;-88
2021/09/25 02:51:34;;;;;;;8.07;7.30;;;;;;;;;;5055780;28;20252;-88
2021/09/25 02:54:00;;;;;;;9.00;7.53;;;;;;;;;;5056686;28;20203;-91
2021/09/25 02:56:27;;;;;;;8.37;7.57;;;;;;;;;;5055452;28;20550;-89
2021/09/25 02:58:54;;;;;;;7.93;7.33;;;;;;;;;;5073245;28;20741;-89
2021/09/25 03:01:20;;;;;;;7.70;7.00;;;;;;;;;;5051885;28;20772;-88
2021/09/25 03:03:47;;;;;;;8.37;7.53;;;;;;;;;;5053611;28;20218;-88
2021/09/25 03:06:15;;;;;;;8.40;7.70;;;;;;;;;;5052034;28;20245;-88
2021/09/25 03:08:42;;;;;;;8.93;8.03;;;;;;;;;;5053393;28;20214;-87
2021/09/25 03:11:08;;;;;;;9.00;7.77;;;;;;;;;;5051272;28;20211;-87
2021/09/25 03:13:35;;;;;;;8.67;7.87;;;;;;;;;;5050770;28;20202;-88
2021/09/25 03:16:02;;;;;;;8.97;8.17;;;;;;;;;;5052527;28;20207;-87
2021/09/25 03:18:28;;;;;;;8.67;7.87;;;;;;;;;;5051386;28;20207;-89
2021/09/25 03:20:55;;;;;;;9.10;8.30;;;;;;;;;;5051981;28;20223;-88
2021/09/25 03:23:23;;;;;;;9.80;7.83;;;;;;;;;;5050900;28;20246;-88
2021/09/25 03:25:50;;;;;;;8.90;8.00;;;;;;;;;;5050926;28;20446;-87
2021/09/25 03:28:16;;;;;;;8.63;7.73;;;;;;;;;;5051944;28;20237;-88
2021/09/25 03:30:43;;;;;;;9.40;8.60;;;;;;;;;;5053211;28;20345;-87
2021/09/25 03:33:10;;;;;;;10.83;8.33;;;;;;;;;;5052889;28;20183;-88
2021/09/25 03:35:36;;;;;;;9.17;8.37;;;;;;;;;;5051270;28;20204;-88
2021/09/25 03:38:03;;;;;;;8.87;8.07;;;;;;;;;;5051728;28;20203;-88
2021/09/25 03:40:31;;;;;;;9.57;8.20;;;;;;;;;;5051258;28;20252;-88
2021/09/25 03:42:58;;;;;;;8.90;8.10;;;;;;;;;;5050950;28;20242;-88
2021/09/25 03:45:24;;;;;;;9.00;8.10;;;;;;;;;;5051283;28;20192;-88
2021/09/25 03:47:57;;;;;;;10.20;8.43;;;;;;;;;;5052483;28;20222;-88
2021/09/25 03:50:23;;;;;;;9.67;8.50;;;;;;;;;;5051590;28;20231;-87
2021/09/25 03:52:50;;;;;;;9.13;8.33;;;;;;;;;;5050420;28;20195;-86
2021/09/25 03:55:17;;;;;;;9.27;8.37;;;;;;;;;;5052161;28;20635;-87
2021/09/25 03:57:45;;;;;;;9.03;8.23;;;;;;;;;;5050515;28;20200;-88
2021/09/25 04:00:12;;;;;;;9.33;8.43;;;;;;;;;;5051884;28;20245;-88
2021/09/25 04:02:39;;;;;;;8.70;7.90;;;;;;;;;;5071839;28;20238;-87
2021/09/25 04:05:06;;;;;;;8.60;7.73;;;;;;;;;;5071724;28;20738;-90
2021/09/25 04:07:33;;;;;;;9.30;8.40;;;;;;;;;;5072530;28;20216;-90
2021/09/25 04:10:00;;;;;;;9.00;7.93;;;;;;;;;;5054761;28;20272;-90
2021/09/25 04:12:26;;;;;;;9.23;8.33;;;;;;;;;;5054410;28;20585;-88
2021/09/25 04:14:54;;;;;;;9.17;8.37;;;;;;;;;;5072407;28;20651;-89
2021/09/25 04:17:21;;;;;;;9.07;8.17;;;;;;;;;;5054363;28;20221;-88
2021/09/25 04:19:48;;;;;;;9.07;8.17;;;;;;;;;;5053900;28;20234;-88
2021/09/25 04:22:14;;;;;;;9.83;8.83;;;;;;;;;;5053862;28;20242;-88
2021/09/25 04:24:42;;;;;;;10.53;9.43;;;;;;;;;;5071678;28;20222;-87
2021/09/25 04:27:09;;;;;;;9.33;8.07;;;;;;;;;;5071758;28;20434;-88
2021/09/25 04:29:35;;;;;;;9.43;8.53;;;;;;;;;;5053755;28;20728;-88
2021/09/25 04:32:04;;;;;;;9.07;8.27;;;;;;;;;;5054146;28;20202;-88
2021/09/25 04:34:31;;;;;;;10.47;9.37;;;;;;;;;;5072144;28;20646;-88
2021/09/25 04:36:58;;;;;;;11.33;8.97;;;;;;;;;;5072050;28;20175;-87
2021/09/25 04:39:25;;;;;;;14.30;9.10;;;;;;;;;;5071426;28;20671;-87
2021/09/25 04:41:52;;;;;;;8.93;8.07;;;;;;;;;;5071374;28;20222;-88
2021/09/25 04:44:18;;;;;;;9.97;8.93;;;;;;;;;;5053746;28;20227;-86
2021/09/25 04:46:45;;;;;;;10.00;9.10;;;;;;;;;;5053769;28;20199;-88
2021/09/25 04:49:15;;;;;;;10.00;9.10;;;;;;;;;;5074910;28;20242;-88
2021/09/25 04:51:42;;;;;;;10.93;9.17;;;;;;;;;;5075114;28;20243;-87
2021/09/25 04:54:09;;;;;;;10.63;9.63;;;;;;;;;;5057200;28;20179;-87
2021/09/25 04:56:35;;;;;;;11.20;9.60;;;;;;;;;;5075037;28;20214;-87
2021/09/25 04:59:02;;;;;;;9.80;8.97;;;;;;;;;;5074915;28;20210;-87
2021/09/25 05:01:31;;;;;;;10.03;9.13;;;;;;;;;;5074701;28;20229;-87
2021/09/25 05:04:00;;;;;;;9.50;8.70;;;;;;;;;;5074779;28;20257;-87
2021/09/25 05:06:28;;;;;;;10.03;9.03;;;;;;;;;;5074635;28;20238;-87
2021/09/25 05:08:55;;;;;;;10.20;9.17;;;;;;;;;;5074479;28;20175;-85
2021/09/25 05:11:23;;;;;;;10.63;9.53;;;;;;;;;;5056245;28;20218;-85
2021/09/25 05:13:50;;;;;;;10.70;9.47;;;;;;;;;;5056329;28;20414;-86
2021/09/25 05:16:16;;;;;;;10.27;9.17;;;;;;;;;;5056338;28;20279;-84
2021/09/25 05:18:43;;;;;;;9.93;9.00;;;;;;;;;;5074232;28;20206;-85
2021/09/25 05:21:10;;;;;;;12.60;9.40;;;;;;;;;;5056172;28;20198;-85
2021/09/25 05:23:38;;;;;;;11.67;9.47;;;;;;;;;;5073902;28;20254;-86
2021/09/25 05:26:06;;;;;;;11.70;9.47;;;;;;;;;;5056129;28;20230;-85
2021/09/25 05:28:32;;;;;;;9.93;9.03;;;;;;;;;;5056479;28;20662;-85
2021/09/25 05:30:59;;;;;;;10.47;9.43;;;;;;;;;;5056314;28;20203;-85
2021/09/25 05:33:26;;;;;;;10.10;9.10;;;;;;;;;;5074304;28;20242;-83
2021/09/25 05:35:52;;;;;;;10.27;9.17;;;;;;;;;;5074444;28;20199;-83
2021/09/25 05:38:19;;;;;;;10.87;9.83;;;;;;;;;;5056254;28;20218;-83
2021/09/25 05:40:47;;;;;;;10.40;9.30;;;;;;;;;;5073703;28;20234;-83
2021/09/25 05:43:14;;;;;;;10.90;9.17;;;;;;;;;;5056281;28;20237;-84
2021/09/25 05:45:40;;;;;;;10.57;9.37;;;;;;;;;;5056012;28;20234;-82
2021/09/25 05:48:07;;;;;;;11.53;9.30;;;;;;;;;;5055718;28;20662;-81
2021/09/25 05:50:34;;;;;;;9.40;8.50;;;;;;;;;;5055526;28;20250;-82
2021/09/25 05:53:00;;;;;;;10.03;8.80;;;;;;;;;;5055889;28;20230;-83
2021/09/25 05:55:27;;;;;;;11.83;9.03;;;;;;;;;;5055832;28;20240;-83
2021/09/25 05:58:01;;;;;;;9.17;8.37;;;;;;;;;;5055330;28;20226;-83
2021/09/25 06:00:27;;;;;;;10.07;9.07;;;;;;;;;;5051828;28;20223;-84
2021/09/25 06:02:57;;;;;;;10.30;9.10;;;;;;;;;;5052254;28;20258;-84
2021/09/25 06:05:24;;;;;;;11.60;8.33;;;;;;;;;;5052065;28;20261;-83
2021/09/25 06:07:51;;;;;;;10.07;9.07;;;;;;;;;;5051886;28;20242;-84
2021/09/25 06:10:17;;;;;;;12.27;9.43;;;;;;;;;;5052310;28;20223;-84
2021/09/25 06:12:44;;;;;;;9.50;8.70;;;;;;;;;;5051932;28;20247;-85
2021/09/25 06:15:12;;;;;;;11.00;8.63;;;;;;;;;;5052231;28;20227;-84
2021/09/25 06:17:39;;;;;;;10.00;9.00;;;;;;;;;;5051336;28;20238;-84
2021/09/25 06:20:06;;;;;;;9.50;8.60;;;;;;;;;;5051863;28;20183;-84
2021/09/25 06:22:32;;;;;;;10.60;9.50;;;;;;;;;;5053163;28;20214;-83
2021/09/25 06:24:59;;;;;;;12.47;9.47;;;;;;;;;;5051373;28;20254;-83
2021/09/25 06:27:26;;;;;;;10.10;9.17;;;;;;;;;;5051622;28;20733;-83
2021/09/25 06:29:52;;;;;;;11.77;10.17;;;;;;;;;;5052535;28;20682;-84
2021/09/25 06:32:20;;;;;;;13.73;9.20;;;;;;;;;;5052674;28;20175;-84
2021/09/25 06:34:47;;;;;;;11.33;9.47;;;;;;;;;;5051526;28;20337;-85
2021/09/25 06:37:14;;;;;;;12.03;10.10;;;;;;;;;;5051360;28;20546;-84
2021/09/25 06:39:40;;;;;;;11.03;9.93;;;;;;;;;;5052852;28;20242;-85
2021/09/25 06:42:07;;;;;;;13.00;10.03;;;;;;;;;;5052815;28;20540;-85
2021/09/25 06:44:34;;;;;;;11.13;9.93;;;;;;;;;;5050987;28;20887;-84
2021/09/25 06:47:00;;;;;;;12.77;10.00;;;;;;;;;;5052460;28;20242;-84
2021/09/25 06:49:28;;;;;;;10.97;9.87;;;;;;;;;;5051169;28;20204;-84
2021/09/25 06:51:55;;;;;;;11.30;9.23;;;;;;;;;;5051100;28;20554;-82
2021/09/25 06:54:22;;;;;;;12.77;9.70;;;;;;;;;;5052302;28;20207;-84
2021/09/25 06:56:48;;;;;;;10.77;9.60;;;;;;;;;;5052404;28;20687;-82
2021/09/25 06:59:15;;;;;;;11.07;9.97;;;;;;;;;;5050589;28;20749;-83
2021/09/25 07:01:41;;;;;;;11.03;9.83;;;;;;;;;;5050218;28;20246;-83
2021/09/25 07:04:08;;;;;;;9.70;8.90;;;;;;;;;;5050834;28;20235;-83
2021/09/25 07:06:39;;;;;;;11.23;10.03;;;;;;;;;;5050544;28;20664;-83
2021/09/25 07:09:06;;;;;;;11.20;10.20;;;;;;;;;;5052364;28;20603;-84
2021/09/25 07:11:32;;;;;;;11.73;9.70;;;;;;;;;;5050353;28;20219;-82
2021/09/25 07:13:59;;;;;;;11.83;9.27;;;;;;;;;;5050176;28;20227;-84
2021/09/25 07:16:26;;;;;;;10.93;9.83;;;;;;;;;;5051151;28;20725;-84
2021/09/25 07:18:52;;;;;;;9.90;8.93;;;;;;;;;;5052110;28;20250;-83
2021/09/25 07:21:19;;;;;;;12.20;9.67;;;;;;;;;;5050547;28;20195;-82
2021/09/25 07:23:47;;;;;;;10.90;9.83;;;;;;;;;;5050350;28;20234;-83
2021/09/25 07:26:14;;;;;;;11.27;9.80;;;;;;;;;;5050699;28;20233;-82
2021/09/25 07:28:40;;;;;;;9.63;8.77;;;;;;;;;;5050222;28;20641;-83
2021/09/25 07:31:09;;;;;;;16.80;9.67;;;;;;;;;;5051817;28;20219;-84
2021/09/25 07:33:36;;;;;;;10.90;9.90;;;;;;;;;;5051423;28;20709;-82
2021/09/25 07:36:03;;;;;;;10.83;9.83;;;;;;;;;;5050359;28;20272;-83
2021/09/25 07:38:30;;;;;;;10.73;9.63;;;;;;;;;;5050319;28;20241;-83
2021/09/25 07:40:58;;;;;;;10.97;9.87;;;;;;;;;;5049853;28;20227;-83
2021/09/25 07:43:25;;;;;;;11.20;9.60;;;;;;;;;;5051482;28;20207;-84
2021/09/25 07:45:52;;;;;;;11.23;10.00;;;;;;;;;;5051615;28;20203;-82
2021/09/25 07:48:18;;;;;;;13.03;9.50;;;;;;;;;;5051510;28;20764;-84
2021/09/25 07:50:45;;;;;;;11.07;9.97;;;;;;;;;;5050130;28;20493;-84
2021/09/25 07:53:12;;;;;;;12.23;9.70;;;;;;;;;;5051594;28;20219;-86
2021/09/25 07:55:38;;;;;;;10.80;9.73;;;;;;;;;;5050091;28;20215;-83
2021/09/25 07:58:06;;;;;;;10.73;9.63;;;;;;;;;;5050588;28;20203;-86
2021/09/25 08:00:34;;;;;;;11.97;10.10;;;;;;;;;;5048182;28;20250;-86
2021/09/25 08:03:01;;;;;;;10.63;9.57;;;;;;;;;;5050252;28;20211;-86
2021/09/25 08:05:28;;;;;;;10.10;9.10;;;;;;;;;;5049486;28;20255;-86
2021/09/25 08:07:55;;;;;;;10.60;9.50;;;;;;;;;;5050939;28;20239;-86
2021/09/25 08:10:21;;;;;;;9.87;8.47;;;;;;;;;;5051114;28;20203;-85
2021/09/25 08:12:49;;;;;;;12.17;9.10;;;;;;;;;;5051249;28;20234;-83
2021/09/25 08:15:18;;;;;;;10.33;8.27;;;;;;;;;;5049263;28;20199;-83
2021/09/25 08:17:45;;;;;;;9.90;7.70;;;;;;;;;;5049509;28;20226;-82
2021/09/25 08:20:13;;;;;;;9.37;8.20;;;;;;;;;;5050103;28;20203;-85
2021/09/25 08:22:40;;;;;;;8.73;7.87;;;;;;;;;;5038064;28;20235;-83
2021/09/25 08:25:07;;;;;;;11.00;8.17;;;;;;;;;;5034067;28;20212;-83
2021/09/25 08:27:34;;;;;;;7.77;7.13;;;;;;;;;;5047707;28;20191;-84
2021/09/25 08:30:00;;;;;;;8.87;8.00;;;;;;;;;;5055135;28;20207;-82
2021/09/25 08:32:28;;;;;;;10.23;8.30;;;;;;;;;;5053944;28;20622;-83
2021/09/25 08:34:55;;;;;;;9.07;8.17;;;;;;;;;;5053792;28;20218;-81
2021/09/25 08:37:22;;;;;;;8.53;7.60;;;;;;;;;;5053684;28;20226;-84
2021/09/25 08:39:48;;;;;;;10.20;7.93;;;;;;;;;;5053436;28;20288;-82
2021/09/25 08:42:16;;;;;;;11.50;8.00;;;;;;;;;;5055313;28;20283;-82
2021/09/25 08:44:43;;;;;;;9.73;8.47;;;;;;;;;;5053369;28;20258;-83
2021/09/25 08:47:10;;;;;;;12.37;8.43;;;;;;;;;;5054020;28;20234;-86
2021/09/25 08:49:38;;;;;;;9.20;8.40;;;;;;;;;;5053793;28;20200;-82
2021/09/25 08:52:05;;;;;;;10.33;9.33;;;;;;;;;;5052583;28;20219;-84
2021/09/25 08:54:31;;;;;;;10.93;8.60;;;;;;;;;;5054796;28;20200;-83
2021/09/25 08:56:58;;;;;;;9.10;8.30;;;;;;;;;;5053550;28;20188;-82
2021/09/25 08:59:25;;;;;;;8.57;7.77;;;;;;;;;;5054404;28;20235;-84
2021/09/25 09:01:51;;;;;;;9.13;8.33;;;;;;;;;;5069234;28;20265;-86
2021/09/25 09:04:18;;;;;;;11.37;7.63;;;;;;;;;;5074266;28;20276;-86
2021/09/25 09:06:48;;;;;;;9.97;8.97;;;;;;;;;;5056268;28;20234;-84
2021/09/25 09:09:15;;;;;;;10.00;8.27;;;;;;;;;;5074420;28;20245;-83
2021/09/25 09:11:43;;;;;;;11.37;8.07;;;;;;;;;;5056674;28;20726;-85
2021/09/25 09:14:13;;;;;;;8.37;7.67;;;;;;;;;;5056745;28;20190;-83
2021/09/25 09:16:39;;;;;;;9.37;8.03;;;;;;;;;;5074542;28;20198;-82
2021/09/25 09:19:06;;;;;;;17.73;8.50;;;;;;;;;;5074699;28;20233;-83
2021/09/25 09:21:33;;;;;;;9.13;7.97;;;;;;;;;;5057414;28;20569;-83
2021/09/25 09:24:02;;;;;;;11.10;7.87;;;;;;;;;;5074632;28;20203;-82
2021/09/25 09:26:30;;;;;;;9.93;8.17;;;;;;;;;;5056354;28;20202;-84
2021/09/25 09:28:57;;;;;;;8.00;7.20;;;;;;;;;;5056179;28;20222;-82
2021/09/25 09:31:24;;;;;;;7.93;7.27;;;;;;;;;;5073944;28;20206;-84
2021/09/25 09:33:52;;;;;;;8.50;7.80;;;;;;;;;;5072972;28;20260;-84
2021/09/25 09:36:23;;;;;;;9.13;8.23;;;;;;;;;;5055757;28;20205;-85
2021/09/25 09:38:51;;;;;;;9.87;7.87;;;;;;;;;;5055567;28;20245;-80
2021/09/25 09:41:20;;;;;;;7.80;7.20;;;;;;;;;;5073583;28;20647;-80
2021/09/25 09:43:47;;;;;;;8.77;7.87;;;;;;;;;;5074161;28;20214;-80
2021/09/25 09:46:14;;;;;;;8.40;7.57;;;;;;;;;;5055390;28;20250;-79
2021/09/25 09:48:40;;;;;;;7.83;7.03;;;;;;;;;;5055562;28;20244;-81
2021/09/25 09:51:07;;;;;;;7.67;6.83;;;;;;;;;;5073511;28;20273;-81
2021/09/25 09:53:42;;;;;;;9.73;7.60;;;;;;;;;;5073715;28;20235;-81
2021/09/25 09:56:21;;;;;;;7.57;6.90;;;;;;;;;;5073761;28;20199;-83
2021/09/25 09:58:56;;;;;;;7.85;7.15;;;;;;;;;;5073052;28;20206;-81
2021/09/25 10:01:22;;;;;;;13.20;7.53;;;;;;;;;;5072993;28;20760;-81
2021/09/25 10:03:49;;;;;;;8.03;7.27;;;;;;;;;;5055341;28;20232;-81
2021/09/25 10:06:16;;;;;;;7.13;6.10;;;;;;;;;;5055779;28;20237;-80
2021/09/25 10:08:43;;;;;;;8.35;6.15;;;;;;;;;;5072962;28;20236;-84
2021/09/25 10:11:09;;;;;;;9.90;6.60;;;;;;;;;;5072992;28;20596;-82
2021/09/25 10:13:40;;;;;;;7.70;6.97;;;;;;;;;;5054859;28;20280;-84
2021/09/25 10:16:07;;;;;;;6.63;6.05;;;;;;;;;;5054603;28;20248;-83
2021/09/25 10:18:34;;;;;;;8.43;6.28;;;;;;;;;;5055102;28;20202;-83
2021/09/25 10:21:01;;;;;;;7.15;6.45;;;;;;;;;;5054843;28;20215;-83
2021/09/25 10:23:27;;;;;;;7.78;6.60;;;;;;;;;;5054805;28;20574;-82
2021/09/25 10:25:54;;;;;;;11.30;5.60;;;;;;;;;;5072682;28;20230;-82
2021/09/25 10:28:24;;;;;;;7.38;6.68;;;;;;;;;;5072298;28;20243;-84
2021/09/25 10:30:52;;;;;;;8.13;7.40;;;;;;;;;;5054636;28;20230;-81
2021/09/25 10:33:19;;;;;;;8.80;6.85;;;;;;;;;;5054370;28;20435;-83
2021/09/25 10:35:46;;;;;;;10.60;7.55;;;;;;;;;;5072132;28;20245;-78
2021/09/25 10:38:12;;;;;;;5.85;5.35;;;;;;;;;;5072791;28;20202;-80
2021/09/25 10:40:40;;;;;;;6.38;5.60;;;;;;;;;;5054337;28;20202;-84
2021/09/25 10:43:20;;;;;;;5.97;5.38;;;;;;;;;;5072599;28;20213;-82
2021/09/25 10:45:48;;;;;;;6.88;5.78;;;;;;;;;;5052902;28;20241;-80
2021/09/25 10:48:17;;;;;;;6.57;6.00;;;;;;;;;;5072321;28;20249;-82
2021/09/25 10:50:47;;;;;;;8.15;6.00;;;;;;;;;;5053662;28;20702;-81
2021/09/25 10:53:15;;;;;;;6.18;5.38;;;;;;;;;;5072268;28;20253;-81
2021/09/25 10:55:44;;;;;;;5.60;5.10;;;;;;;;;;5072320;28;20206;-80
2021/09/25 10:58:11;;;;;;;7.75;5.55;;;;;;;;;;5054547;28;20195;-80
2021/09/25 11:00:47;;;;;;;7.07;5.43;;;;;;;;;;5072071;28;20281;-82
2021/09/25 11:03:46;;;;;;;6.85;4.90;;;;;;;;;;5054316;28;20218;-82
2021/09/25 11:06:14;;;;;;;6.90;4.97;;;;;;;;;;5054135;28;20229;-81
2021/09/25 11:08:48;;;;;;;5.53;5.00;;;;;;;;;;5054237;28;20240;-83
2021/09/25 11:11:17;;;;;;;5.03;4.40;;;;;;;;;;5054053;28;20668;-79
2021/09/25 11:14:03;;;;;;;8.13;4.65;;;;;;;;;;5053997;28;20202;-81
2021/09/25 11:16:48;;;;;;;4.63;4.13;;;;;;;;;;5072083;28;20221;-82
2021/09/25 11:19:29;;;;;;;4.78;4.28;;;;;;;;;;5071857;28;20669;-83
2021/09/25 11:22:00;;;;;;;4.80;4.35;;;;;;;;;;5071922;28;20237;-83
2021/09/25 11:24:28;;;;;;;4.18;3.88;;;;;;;;;;5071687;28;20234;-83
2021/09/25 11:26:55;;;;;;;5.40;3.97;;;;;;;;;;5053314;28;20246;-83
2021/09/25 11:29:22;;;;;;;5.15;4.50;;;;;;;;;;5071326;28;20245;-81
2021/09/25 11:31:50;;;;;;;5.22;4.82;;;;;;;;;;5071597;28;20205;-79
2021/09/25 11:34:21;;;;;;;5.82;4.80;;;;;;;;;;5053660;28;20195;-80
2021/09/25 11:36:51;;;;;;;10.02;5.05;;;;;;;;;;5071314;28;20230;-81
2021/09/25 11:39:21;;;;;;;7.40;4.60;;;;;;;;;;5053303;28;20570;-81
2021/09/25 11:42:02;;;;;;;4.80;4.45;;;;;;;;;;5071718;28;20245;-78
2021/09/25 11:44:40;;;;;;;7.00;4.35;;;;;;;;;;5052415;28;20206;-77
2021/09/25 11:47:07;;;;;;;4.50;4.10;;;;;;;;;;5070599;28;20253;-79
2021/09/25 11:49:34;;;;;;;4.75;4.38;;;;;;;;;;5070677;28;20238;-77
2021/09/25 11:52:03;;;;;;;4.88;4.50;;;;;;;;;;5052616;28;20234;-79
2021/09/25 11:54:30;;;;;;;6.30;4.30;;;;;;;;;;5070250;28;20230;-79
2021/09/25 11:56:56;;;;;;;4.75;4.40;;;;;;;;;;5070935;28;20596;-79
2021/09/25 11:59:25;;;;;;;6.28;4.55;;;;;;;;;;5070431;28;20230;-79
2021/09/25 12:01:51;;;;;;;5.45;3.97;;;;;;;;;;5070008;28;20258;-79
2021/09/25 12:04:18;;;;;;;4.18;3.88;;;;;;;;;;5052916;28;20647;-79
2021/09/25 12:06:51;;;;;;;4.10;3.63;;;;;;;;;;5070897;28;20269;-78
2021/09/25 12:09:38;;;;;;;4.75;3.85;;;;;;;;;;5071133;28;20244;-77
2021/09/25 12:12:05;;;;;;;5.55;3.63;;;;;;;;;;5053035;28;20210;-78
2021/09/25 12:14:33;;;;;;;4.50;4.10;;;;;;;;;;5070751;28;20253;-76
2021/09/25 12:17:00;;;;;;;4.55;3.30;;;;;;;;;;5070649;28;20226;-76
2021/09/25 12:19:26;;;;;;;3.40;3.10;;;;;;;;;;5070775;28;20241;-76
2021/09/25 12:21:53;;;;;;;2.95;2.75;;;;;;;;;;5071033;28;20203;-76
2021/09/25 12:24:21;;;;;;;4.00;3.22;;;;;;;;;;5070465;28;20743;-76
2021/09/25 12:26:52;;;;;;;4.80;3.45;;;;;;;;;;5070521;28;20265;-76
2021/09/25 12:29:19;;;;;;;4.15;3.08;;;;;;;;;;5070769;28;20245;-77
2021/09/25 12:31:46;;;;;;;3.35;3.15;;;;;;;;;;5070913;28;20698;-77
2021/09/25 12:34:14;;;;;;;4.72;2.72;;;;;;;;;;5070993;28;20245;-76
2021/09/25 12:36:42;;;;;;;5.18;3.10;;;;;;;;;;5052715;28;20256;-76
2021/09/25 12:39:10;;;;;;;4.63;2.95;;;;;;;;;;5052861;28;20558;-76
2021/09/25 12:41:39;;;;;;;3.28;2.90;;;;;;;;;;5052660;28;20288;-77
2021/09/25 12:44:06;;;;;;;3.00;2.85;;;;;;;;;;5071141;28;20589;-76
2021/09/25 12:46:34;;;;;;;6.93;3.08;;;;;;;;;;5070060;28;20246;-76
2021/09/25 12:49:12;;;;;;;5.47;3.05;;;;;;;;;;5070902;28;20210;-76
2021/09/25 12:51:42;;;;;;;3.05;2.95;;;;;;;;;;5070296;28;20277;-77
2021/09/25 12:54:10;;;;;;;6.50;3.40;;;;;;;;;;5052559;28;20608;-78
2021/09/25 12:56:39;;;;;;;4.28;2.92;;;;;;;;;;5052496;28;20230;-77
2021/09/25 12:59:07;;;;;;;2.85;2.72;;;;;;;;;;5070877;28;20238;-76
2021/09/25 13:01:34;;;;;;;3.50;3.10;;;;;;;;;;5070336;28;20254;-77
2021/09/25 13:04:14;;;;;;;3.10;2.90;;;;;;;;;;5070760;28;20221;-76
2021/09/25 13:06:41;;;;;;;2.97;2.78;;;;;;;;;;5070259;28;20249;-78
2021/09/25 13:09:07;;;;;;;2.95;2.85;;;;;;;;;;5072118;28;20233;-77
2021/09/25 13:11:34;;;;;;;2.78;2.58;;;;;;;;;;5073362;28;20234;-77
2021/09/25 13:14:06;;;;;;;3.78;2.60;;;;;;;;;;5073813;28;20213;-77
2021/09/25 13:16:32;;;;;;;3.00;2.80;;;;;;;;;;5073979;28;20234;-77
2021/09/25 13:18:59;;;;;;;2.63;2.53;;;;;;;;;;5073591;28;20276;-77
2021/09/25 13:21:26;;;;;;;3.25;3.15;;;;;;;;;;5073767;28;20238;-76
2021/09/25 13:23:57;;;;;;;3.10;2.72;;;;;;;;;;5055608;28;20202;-76
2021/09/25 13:26:24;;;;;;;2.70;2.50;;;;;;;;;;5073378;28;20258;-76
2021/09/25 13:28:51;;;;;;;2.65;2.40;;;;;;;;;;5055683;28;20256;-77
2021/09/25 13:31:19;;;;;;;3.17;2.70;;;;;;;;;;5055989;28;20234;-77
2021/09/25 13:33:45;;;;;;;2.75;2.55;;;;;;;;;;5055529;28;20230;-77
2021/09/25 13:36:12;;;;;;;5.97;2.92;;;;;;;;;;5073683;28;20230;-77
2021/09/25 13:38:39;;;;;;;3.58;2.28;;;;;;;;;;5073372;28;20237;-77
2021/09/25 13:41:05;;;;;;;3.65;2.80;;;;;;;;;;5055200;28;20203;-77
2021/09/25 13:43:32;;;;;;;3.47;2.85;;;;;;;;;;5055254;28;20234;-77
2021/09/25 13:45:59;;;;;;;22.15;3.78;;;;;;;;;;5055464;28;20284;-78
2021/09/25 13:48:27;;;;;;;2.58;2.47;;;;;;;;;;5073758;28;20210;-78
2021/09/25 13:50:54;;;;;;;2.65;2.53;;;;;;;;;;5072948;28;20717;-77
2021/09/25 13:53:21;;;;;;;3.47;2.55;;;;;;;;;;5072976;28;20249;-77
2021/09/25 13:55:48;;;;;;;3.30;3.00;;;;;;;;;;5073299;28;20257;-77
2021/09/25 13:58:14;;;;;;;2.75;2.40;;;;;;;;;;5073294;28;20297;-77
2021/09/25 14:00:41;;;;;;;3.22;2.60;;;;;;;;;;5073059;28;20262;-78
2021/09/25 14:03:08;;;;;;;2.92;2.72;;;;;;;;;;5055067;28;20199;-77
2021/09/25 14:05:36;;;;;;;3.35;2.90;;;;;;;;;;5054759;28;20232;-76
2021/09/25 14:08:06;;;;;;;3.10;2.90;;;;;;;;;;5072914;28;20250;-77
2021/09/25 14:10:34;;;;;;;2.95;2.72;;;;;;;;;;5054981;28;20206;-77
2021/09/25 14:13:00;;;;;;;2.60;2.50;;;;;;;;;;5072958;28;20230;-77
2021/09/25 14:15:27;;;;;;;4.43;2.70;;;;;;;;;;5073210;28;20214;-77
2021/09/25 14:17:54;;;;;;;4.75;2.83;;;;;;;;;;5073059;28;20213;-77
2021/09/25 14:20:20;;;;;;;4.10;2.65;;;;;;;;;;5072867;28;20669;-78
2021/09/25 14:22:48;;;;;;;8.35;2.80;;;;;;;;;;5072388;28;20242;-77
2021/09/25 14:25:15;;;;;;;3.22;2.97;;;;;;;;;;5072857;28;20242;-77
2021/09/25 14:27:42;;;;;;;3.63;2.50;;;;;;;;;;5072202;28;20254;-77
2021/09/25 14:30:09;;;;;;;3.30;2.75;;;;;;;;;;5072230;28;20237;-78
2021/09/25 14:32:35;;;;;;;4.00;2.40;;;;;;;;;;5072445;28;20241;-77
2021/09/25 14:35:02;;;;;;;3.40;2.97;;;;;;;;;;5072697;28;20234;-77
2021/09/25 14:37:29;;;;;;;2.88;2.67;;;;;;;;;;5054720;28;20190;-78
2021/09/25 14:39:57;;;;;;;3.47;2.83;;;;;;;;;;5072336;28;20246;-77
2021/09/25 14:42:23;;;;;;;3.15;2.85;;;;;;;;;;5054903;28;20968;-82